sensor_id;sensor_type;location;lat;lon;timestamp;P1;durP1;ratioP1;P2;durP2;ratioP2
20334;SDS011;10325;51.468;5.804;2022-09-09T00:01:51;0.63;;;0.50;;
20334;SDS011;10325;51.468;5.804;2022-09-09T00:04:37;0.70;;;0.50;;
20334;SDS011;10325;51.468;5.804;2022-09-09T00:17:42;0.40;;;0.40;;
20334;SDS011;10325;51.468;5.804;2022-09-09T00:20:20;1.10;;;0.70;;
20334;SDS011;10325;51.468;5.804;2022-09-09T00:22:59;1.00;;;0.50;;
20334;SDS011;10325;51.468;5.804;2022-09-09T00:28:33;0.70;;;0.37;;
20334;SDS011;10325;51.468;5.804;2022-09-09T00:31:23;0.80;;;0.57;;
20334;SDS011;10325;51.468;5.804;2022-09-09T00:33:53;0.63;;;0.60;;
20334;SDS011;10325;51.468;5.804;2022-09-09T00:36:41;0.60;;;0.40;;
20334;SDS011;10325;51.468;5.804;2022-09-09T00:39:29;0.60;;;0.50;;
20334;SDS011;10325;51.468;5.804;2022-09-09T00:44:51;1.10;;;0.50;;
20334;SDS011;10325;51.468;5.804;2022-09-09T00:50:21;0.57;;;0.40;;
20334;SDS011;10325;51.468;5.804;2022-09-09T00:55:54;1.67;;;0.60;;
20334;SDS011;10325;51.468;5.804;2022-09-09T00:58:25;0.90;;;0.30;;
20334;SDS011;10325;51.468;5.804;2022-09-09T01:01:03;0.67;;;0.40;;
20334;SDS011;10325;51.468;5.804;2022-09-09T01:03:52;0.90;;;0.50;;
20334;SDS011;10325;51.468;5.804;2022-09-09T01:06:30;1.17;;;0.47;;
20334;SDS011;10325;51.468;5.804;2022-09-09T01:14:48;1.17;;;0.50;;
20334;SDS011;10325;51.468;5.804;2022-09-09T01:17:32;1.10;;;0.40;;
20334;SDS011;10325;51.468;5.804;2022-09-09T01:20:08;0.70;;;0.60;;
20334;SDS011;10325;51.468;5.804;2022-09-09T01:28:30;0.43;;;0.40;;
20334;SDS011;10325;51.468;5.804;2022-09-09T01:31:07;0.77;;;0.53;;
20334;SDS011;10325;51.468;5.804;2022-09-09T01:33:44;0.87;;;0.57;;
20334;SDS011;10325;51.468;5.804;2022-09-09T01:38:54;1.90;;;0.70;;
20334;SDS011;10325;51.468;5.804;2022-09-09T01:41:25;1.00;;;0.40;;
20334;SDS011;10325;51.468;5.804;2022-09-09T01:43:56;1.03;;;0.43;;
20334;SDS011;10325;51.468;5.804;2022-09-09T01:46:28;1.00;;;0.50;;
20334;SDS011;10325;51.468;5.804;2022-09-09T01:49:00;1.07;;;0.50;;
20334;SDS011;10325;51.468;5.804;2022-09-09T01:51:32;0.47;;;0.37;;
20334;SDS011;10325;51.468;5.804;2022-09-09T01:54:03;1.27;;;0.50;;
20334;SDS011;10325;51.468;5.804;2022-09-09T02:04:43;1.67;;;0.50;;
20334;SDS011;10325;51.468;5.804;2022-09-09T02:12:54;0.77;;;0.50;;
20334;SDS011;10325;51.468;5.804;2022-09-09T02:15:45;0.40;;;0.40;;
20334;SDS011;10325;51.468;5.804;2022-09-09T02:18:17;1.20;;;0.40;;
20334;SDS011;10325;51.468;5.804;2022-09-09T02:20:59;0.43;;;0.40;;
20334;SDS011;10325;51.468;5.804;2022-09-09T02:23:33;0.73;;;0.50;;
20334;SDS011;10325;51.468;5.804;2022-09-09T02:26:06;0.53;;;0.53;;
20334;SDS011;10325;51.468;5.804;2022-09-09T02:28:37;0.47;;;0.47;;
20334;SDS011;10325;51.468;5.804;2022-09-09T02:31:15;5.10;;;0.80;;
20334;SDS011;10325;51.468;5.804;2022-09-09T02:33:47;1.50;;;0.63;;
20334;SDS011;10325;51.468;5.804;2022-09-09T02:36:18;0.70;;;0.43;;
20334;SDS011;10325;51.468;5.804;2022-09-09T02:39:07;1.43;;;0.60;;
20334;SDS011;10325;51.468;5.804;2022-09-09T02:41:42;0.90;;;0.50;;
20334;SDS011;10325;51.468;5.804;2022-09-09T02:44:14;1.30;;;0.73;;
20334;SDS011;10325;51.468;5.804;2022-09-09T02:52:21;1.50;;;0.50;;
20334;SDS011;10325;51.468;5.804;2022-09-09T02:54:54;1.43;;;0.50;;
20334;SDS011;10325;51.468;5.804;2022-09-09T02:57:26;0.80;;;0.60;;
20334;SDS011;10325;51.468;5.804;2022-09-09T02:59:59;0.57;;;0.57;;
20334;SDS011;10325;51.468;5.804;2022-09-09T03:02:29;1.20;;;0.47;;
20334;SDS011;10325;51.468;5.804;2022-09-09T03:05:01;0.40;;;0.40;;
20334;SDS011;10325;51.468;5.804;2022-09-09T03:07:45;0.47;;;0.40;;
20334;SDS011;10325;51.468;5.804;2022-09-09T03:10:13;0.70;;;0.50;;
20334;SDS011;10325;51.468;5.804;2022-09-09T03:12:45;0.97;;;0.50;;
20334;SDS011;10325;51.468;5.804;2022-09-09T03:15:17;2.67;;;0.83;;
20334;SDS011;10325;51.468;5.804;2022-09-09T03:17:46;0.50;;;0.50;;
20334;SDS011;10325;51.468;5.804;2022-09-09T03:20:17;1.40;;;0.60;;
20334;SDS011;10325;51.468;5.804;2022-09-09T03:22:50;0.70;;;0.50;;
20334;SDS011;10325;51.468;5.804;2022-09-09T03:25:21;0.57;;;0.50;;
20334;SDS011;10325;51.468;5.804;2022-09-09T03:27:54;0.70;;;0.40;;
20334;SDS011;10325;51.468;5.804;2022-09-09T03:30:40;1.83;;;0.67;;
20334;SDS011;10325;51.468;5.804;2022-09-09T03:33:10;2.20;;;0.93;;
20334;SDS011;10325;51.468;5.804;2022-09-09T03:35:46;3.07;;;0.50;;
20334;SDS011;10325;51.468;5.804;2022-09-09T03:38:21;0.83;;;0.60;;
20334;SDS011;10325;51.468;5.804;2022-09-09T03:40:53;1.27;;;0.60;;
20334;SDS011;10325;51.468;5.804;2022-09-09T03:43:28;0.73;;;0.47;;
20334;SDS011;10325;51.468;5.804;2022-09-09T03:45:56;2.00;;;0.50;;
20334;SDS011;10325;51.468;5.804;2022-09-09T03:48:25;0.70;;;0.53;;
20334;SDS011;10325;51.468;5.804;2022-09-09T03:50:56;0.87;;;0.50;;
20334;SDS011;10325;51.468;5.804;2022-09-09T03:53:32;1.80;;;0.50;;
20334;SDS011;10325;51.468;5.804;2022-09-09T03:56:03;0.70;;;0.47;;
20334;SDS011;10325;51.468;5.804;2022-09-09T03:58:37;1.37;;;0.60;;
20334;SDS011;10325;51.468;5.804;2022-09-09T04:01:09;3.17;;;0.70;;
20334;SDS011;10325;51.468;5.804;2022-09-09T04:03:55;1.37;;;0.90;;
20334;SDS011;10325;51.468;5.804;2022-09-09T04:06:34;1.57;;;0.63;;
20334;SDS011;10325;51.468;5.804;2022-09-09T04:09:05;0.50;;;0.50;;
20334;SDS011;10325;51.468;5.804;2022-09-09T04:11:56;0.90;;;0.67;;
20334;SDS011;10325;51.468;5.804;2022-09-09T04:14:28;2.07;;;0.63;;
20334;SDS011;10325;51.468;5.804;2022-09-09T04:17:00;2.77;;;0.60;;
20334;SDS011;10325;51.468;5.804;2022-09-09T04:19:34;1.30;;;0.70;;
20334;SDS011;10325;51.468;5.804;2022-09-09T04:22:06;1.83;;;0.70;;
20334;SDS011;10325;51.468;5.804;2022-09-09T04:24:47;2.00;;;0.67;;
20334;SDS011;10325;51.468;5.804;2022-09-09T04:27:21;1.90;;;0.60;;
20334;SDS011;10325;51.468;5.804;2022-09-09T04:29:52;1.20;;;0.60;;
20334;SDS011;10325;51.468;5.804;2022-09-09T04:32:27;2.37;;;0.70;;
20334;SDS011;10325;51.468;5.804;2022-09-09T04:34:59;1.20;;;0.70;;
20334;SDS011;10325;51.468;5.804;2022-09-09T04:37:28;1.70;;;1.00;;
20334;SDS011;10325;51.468;5.804;2022-09-09T04:40:00;2.57;;;0.90;;
20334;SDS011;10325;51.468;5.804;2022-09-09T04:42:36;3.27;;;0.70;;
20334;SDS011;10325;51.468;5.804;2022-09-09T04:45:07;2.33;;;0.70;;
20334;SDS011;10325;51.468;5.804;2022-09-09T04:47:41;3.13;;;0.83;;
20334;SDS011;10325;51.468;5.804;2022-09-09T04:50:13;1.07;;;0.50;;
20334;SDS011;10325;51.468;5.804;2022-09-09T04:52:56;0.93;;;0.80;;
20334;SDS011;10325;51.468;5.804;2022-09-09T04:55:32;1.40;;;0.70;;
20334;SDS011;10325;51.468;5.804;2022-09-09T04:58:05;1.03;;;0.77;;
20334;SDS011;10325;51.468;5.804;2022-09-09T05:00:37;2.93;;;0.80;;
20334;SDS011;10325;51.468;5.804;2022-09-09T05:03:08;1.03;;;0.80;;
20334;SDS011;10325;51.468;5.804;2022-09-09T05:05:36;2.13;;;0.80;;
20334;SDS011;10325;51.468;5.804;2022-09-09T05:08:11;1.70;;;0.80;;
20334;SDS011;10325;51.468;5.804;2022-09-09T05:10:41;1.77;;;0.87;;
20334;SDS011;10325;51.468;5.804;2022-09-09T05:13:12;1.67;;;0.80;;
20334;SDS011;10325;51.468;5.804;2022-09-09T05:15:51;1.13;;;0.80;;
20334;SDS011;10325;51.468;5.804;2022-09-09T05:18:26;2.87;;;0.90;;
20334;SDS011;10325;51.468;5.804;2022-09-09T05:21:02;2.10;;;0.80;;
20334;SDS011;10325;51.468;5.804;2022-09-09T05:23:37;2.93;;;1.00;;
20334;SDS011;10325;51.468;5.804;2022-09-09T05:26:12;1.00;;;0.60;;
20334;SDS011;10325;51.468;5.804;2022-09-09T05:28:44;2.10;;;0.87;;
20334;SDS011;10325;51.468;5.804;2022-09-09T05:31:14;10.37;;;2.70;;
20334;SDS011;10325;51.468;5.804;2022-09-09T05:33:47;9.37;;;3.33;;
20334;SDS011;10325;51.468;5.804;2022-09-09T05:36:17;12.60;;;4.80;;
20334;SDS011;10325;51.468;5.804;2022-09-09T05:38:50;15.70;;;5.23;;
20334;SDS011;10325;51.468;5.804;2022-09-09T05:41:23;12.83;;;5.40;;
20334;SDS011;10325;51.468;5.804;2022-09-09T05:43:55;13.63;;;5.10;;
20334;SDS011;10325;51.468;5.804;2022-09-09T05:46:32;15.97;;;5.53;;
20334;SDS011;10325;51.468;5.804;2022-09-09T05:49:14;19.10;;;5.00;;
20334;SDS011;10325;51.468;5.804;2022-09-09T05:51:47;16.10;;;5.83;;
20334;SDS011;10325;51.468;5.804;2022-09-09T05:54:18;13.43;;;4.57;;
20334;SDS011;10325;51.468;5.804;2022-09-09T05:56:49;12.37;;;4.90;;
20334;SDS011;10325;51.468;5.804;2022-09-09T05:59:23;9.97;;;3.53;;
20334;SDS011;10325;51.468;5.804;2022-09-09T06:01:53;11.07;;;4.27;;
20334;SDS011;10325;51.468;5.804;2022-09-09T06:04:24;10.00;;;3.87;;
20334;SDS011;10325;51.468;5.804;2022-09-09T06:06:54;11.27;;;3.60;;
20334;SDS011;10325;51.468;5.804;2022-09-09T06:09:26;8.03;;;2.97;;
20334;SDS011;10325;51.468;5.804;2022-09-09T06:12:00;7.27;;;2.77;;
20334;SDS011;10325;51.468;5.804;2022-09-09T06:14:28;6.10;;;2.50;;
20334;SDS011;10325;51.468;5.804;2022-09-09T06:17:02;5.63;;;2.80;;
20334;SDS011;10325;51.468;5.804;2022-09-09T06:19:32;5.00;;;2.57;;
20334;SDS011;10325;51.468;5.804;2022-09-09T06:22:02;5.30;;;2.57;;
20334;SDS011;10325;51.468;5.804;2022-09-09T06:24:34;4.40;;;1.83;;
20334;SDS011;10325;51.468;5.804;2022-09-09T06:27:05;8.00;;;2.40;;
20334;SDS011;10325;51.468;5.804;2022-09-09T06:29:37;6.10;;;2.37;;
20334;SDS011;10325;51.468;5.804;2022-09-09T06:32:07;3.83;;;1.83;;
20334;SDS011;10325;51.468;5.804;2022-09-09T06:34:34;4.60;;;1.70;;
20334;SDS011;10325;51.468;5.804;2022-09-09T06:37:06;3.27;;;1.50;;
20334;SDS011;10325;51.468;5.804;2022-09-09T06:39:38;3.47;;;1.63;;
20334;SDS011;10325;51.468;5.804;2022-09-09T06:42:07;4.73;;;1.80;;
20334;SDS011;10325;51.468;5.804;2022-09-09T06:44:38;3.80;;;1.50;;
20334;SDS011;10325;51.468;5.804;2022-09-09T06:47:09;3.57;;;1.60;;
20334;SDS011;10325;51.468;5.804;2022-09-09T06:49:43;3.80;;;1.70;;
20334;SDS011;10325;51.468;5.804;2022-09-09T06:52:13;2.97;;;1.40;;
20334;SDS011;10325;51.468;5.804;2022-09-09T06:54:41;2.63;;;1.47;;
20334;SDS011;10325;51.468;5.804;2022-09-09T06:57:12;6.23;;;1.73;;
20334;SDS011;10325;51.468;5.804;2022-09-09T07:00:04;3.97;;;1.60;;
20334;SDS011;10325;51.468;5.804;2022-09-09T07:02:35;1.90;;;1.23;;
20334;SDS011;10325;51.468;5.804;2022-09-09T07:05:12;3.63;;;1.67;;
20334;SDS011;10325;51.468;5.804;2022-09-09T07:07:46;5.60;;;1.60;;
20334;SDS011;10325;51.468;5.804;2022-09-09T07:10:18;3.60;;;1.47;;
20334;SDS011;10325;51.468;5.804;2022-09-09T07:12:52;3.37;;;1.40;;
20334;SDS011;10325;51.468;5.804;2022-09-09T07:15:25;4.33;;;1.60;;
20334;SDS011;10325;51.468;5.804;2022-09-09T07:18:00;4.33;;;1.27;;
20334;SDS011;10325;51.468;5.804;2022-09-09T07:20:32;2.50;;;1.10;;
20334;SDS011;10325;51.468;5.804;2022-09-09T07:23:07;3.47;;;1.50;;
20334;SDS011;10325;51.468;5.804;2022-09-09T07:25:41;7.13;;;1.37;;
20334;SDS011;10325;51.468;5.804;2022-09-09T07:28:13;5.30;;;1.53;;
20334;SDS011;10325;51.468;5.804;2022-09-09T07:30:57;7.40;;;1.73;;
20334;SDS011;10325;51.468;5.804;2022-09-09T07:33:34;3.17;;;1.60;;
20334;SDS011;10325;51.468;5.804;2022-09-09T07:36:08;4.60;;;1.57;;
20334;SDS011;10325;51.468;5.804;2022-09-09T07:38:38;4.07;;;1.23;;
20334;SDS011;10325;51.468;5.804;2022-09-09T07:41:11;6.03;;;1.50;;
20334;SDS011;10325;51.468;5.804;2022-09-09T07:43:42;5.73;;;1.30;;
20334;SDS011;10325;51.468;5.804;2022-09-09T07:46:12;5.40;;;1.50;;
20334;SDS011;10325;51.468;5.804;2022-09-09T07:48:52;3.10;;;1.60;;
20334;SDS011;10325;51.468;5.804;2022-09-09T07:51:33;3.17;;;1.60;;
20334;SDS011;10325;51.468;5.804;2022-09-09T07:54:04;3.13;;;1.20;;
20334;SDS011;10325;51.468;5.804;2022-09-09T07:56:37;4.33;;;1.33;;
20334;SDS011;10325;51.468;5.804;2022-09-09T07:59:10;6.80;;;1.83;;
20334;SDS011;10325;51.468;5.804;2022-09-09T08:01:46;4.00;;;1.30;;
20334;SDS011;10325;51.468;5.804;2022-09-09T08:04:17;3.93;;;1.17;;
20334;SDS011;10325;51.468;5.804;2022-09-09T08:06:48;5.10;;;1.33;;
20334;SDS011;10325;51.468;5.804;2022-09-09T08:09:19;3.23;;;1.20;;
20334;SDS011;10325;51.468;5.804;2022-09-09T08:11:49;3.53;;;1.73;;
20334;SDS011;10325;51.468;5.804;2022-09-09T08:14:19;2.77;;;1.50;;
20334;SDS011;10325;51.468;5.804;2022-09-09T08:16:51;1.93;;;1.23;;
20334;SDS011;10325;51.468;5.804;2022-09-09T08:19:23;3.27;;;1.53;;
20334;SDS011;10325;51.468;5.804;2022-09-09T08:22:00;5.07;;;1.50;;
20334;SDS011;10325;51.468;5.804;2022-09-09T08:24:30;5.30;;;1.27;;
20334;SDS011;10325;51.468;5.804;2022-09-09T08:26:57;3.23;;;1.43;;
20334;SDS011;10325;51.468;5.804;2022-09-09T08:29:26;2.10;;;1.17;;
20334;SDS011;10325;51.468;5.804;2022-09-09T08:32:07;3.13;;;1.53;;
20334;SDS011;10325;51.468;5.804;2022-09-09T08:34:37;2.27;;;1.10;;
20334;SDS011;10325;51.468;5.804;2022-09-09T08:37:07;3.47;;;1.30;;
20334;SDS011;10325;51.468;5.804;2022-09-09T08:39:37;2.90;;;1.17;;
20334;SDS011;10325;51.468;5.804;2022-09-09T08:45:09;3.07;;;1.43;;
20334;SDS011;10325;51.468;5.804;2022-09-09T08:50:37;4.40;;;1.40;;
20334;SDS011;10325;51.468;5.804;2022-09-09T08:55:52;2.40;;;1.30;;
20334;SDS011;10325;51.468;5.804;2022-09-09T08:58:23;3.67;;;1.07;;
20334;SDS011;10325;51.468;5.804;2022-09-09T09:11:56;1.73;;;0.90;;
20334;SDS011;10325;51.468;5.804;2022-09-09T09:14:38;4.17;;;1.30;;
20334;SDS011;10325;51.468;5.804;2022-09-09T09:17:12;2.40;;;1.20;;
20334;SDS011;10325;51.468;5.804;2022-09-09T09:19:51;4.07;;;1.03;;
20334;SDS011;10325;51.468;5.804;2022-09-09T09:22:33;2.23;;;1.20;;
20334;SDS011;10325;51.468;5.804;2022-09-09T09:25:21;2.60;;;1.30;;
20334;SDS011;10325;51.468;5.804;2022-09-09T09:31:08;2.37;;;1.10;;
20334;SDS011;10325;51.468;5.804;2022-09-09T09:33:44;3.97;;;1.17;;
20334;SDS011;10325;51.468;5.804;2022-09-09T09:36:16;2.57;;;1.30;;
20334;SDS011;10325;51.468;5.804;2022-09-09T09:38:57;2.83;;;1.00;;
20334;SDS011;10325;51.468;5.804;2022-09-09T09:41:51;1.60;;;0.93;;
20334;SDS011;10325;51.468;5.804;2022-09-09T09:44:26;2.60;;;1.13;;
20334;SDS011;10325;51.468;5.804;2022-09-09T09:47:08;2.60;;;1.10;;
20334;SDS011;10325;51.468;5.804;2022-09-09T09:49:38;3.97;;;1.43;;
20334;SDS011;10325;51.468;5.804;2022-09-09T09:52:12;1.43;;;0.80;;
20334;SDS011;10325;51.468;5.804;2022-09-09T09:54:46;2.23;;;1.07;;
20334;SDS011;10325;51.468;5.804;2022-09-09T09:57:21;3.37;;;1.00;;
20334;SDS011;10325;51.468;5.804;2022-09-09T10:00:12;3.80;;;1.00;;
20334;SDS011;10325;51.468;5.804;2022-09-09T10:02:44;3.57;;;1.00;;
20334;SDS011;10325;51.468;5.804;2022-09-09T10:05:21;2.30;;;1.10;;
20334;SDS011;10325;51.468;5.804;2022-09-09T10:08:09;3.23;;;1.43;;
20334;SDS011;10325;51.468;5.804;2022-09-09T10:16:29;2.60;;;1.20;;
20334;SDS011;10325;51.468;5.804;2022-09-09T10:19:04;2.00;;;1.10;;
20334;SDS011;10325;51.468;5.804;2022-09-09T10:21:56;2.73;;;1.30;;
20334;SDS011;10325;51.468;5.804;2022-09-09T10:27:23;2.37;;;0.90;;
20334;SDS011;10325;51.468;5.804;2022-09-09T10:30:06;3.20;;;1.03;;
20334;SDS011;10325;51.468;5.804;2022-09-09T10:33:23;2.20;;;1.17;;
20334;SDS011;10325;51.468;5.804;2022-09-09T10:38:45;3.43;;;1.30;;
20334;SDS011;10325;51.468;5.804;2022-09-09T10:55:30;3.47;;;1.40;;
20334;SDS011;10325;51.468;5.804;2022-09-09T10:58:12;2.37;;;1.10;;
20334;SDS011;10325;51.468;5.804;2022-09-09T11:00:47;4.87;;;1.43;;
20334;SDS011;10325;51.468;5.804;2022-09-09T11:03:25;3.03;;;1.30;;
20334;SDS011;10325;51.468;5.804;2022-09-09T11:06:01;3.53;;;1.03;;
20334;SDS011;10325;51.468;5.804;2022-09-09T11:08:31;2.63;;;1.20;;
20334;SDS011;10325;51.468;5.804;2022-09-09T11:14:25;6.47;;;1.10;;
20334;SDS011;10325;51.468;5.804;2022-09-09T11:17:01;7.10;;;1.37;;
20334;SDS011;10325;51.468;5.804;2022-09-09T11:19:33;2.50;;;1.17;;
20334;SDS011;10325;51.468;5.804;2022-09-09T11:22:07;2.13;;;1.10;;
20334;SDS011;10325;51.468;5.804;2022-09-09T11:27:32;2.07;;;1.10;;
20334;SDS011;10325;51.468;5.804;2022-09-09T11:30:15;1.43;;;0.70;;
20334;SDS011;10325;51.468;5.804;2022-09-09T11:38:52;2.10;;;0.90;;
20334;SDS011;10325;51.468;5.804;2022-09-09T11:41:33;1.23;;;0.90;;
20334;SDS011;10325;51.468;5.804;2022-09-09T11:44:12;1.37;;;0.80;;
20334;SDS011;10325;51.468;5.804;2022-09-09T11:46:45;1.40;;;0.90;;
20334;SDS011;10325;51.468;5.804;2022-09-09T11:49:26;2.17;;;1.03;;
20334;SDS011;10325;51.468;5.804;2022-09-09T11:52:10;2.30;;;0.97;;
20334;SDS011;10325;51.468;5.804;2022-09-09T11:54:46;2.00;;;0.90;;
20334;SDS011;10325;51.468;5.804;2022-09-09T11:57:24;1.87;;;1.17;;
20334;SDS011;10325;51.468;5.804;2022-09-09T12:00:01;1.83;;;0.83;;
20334;SDS011;10325;51.468;5.804;2022-09-09T12:02:33;2.90;;;0.90;;
20334;SDS011;10325;51.468;5.804;2022-09-09T12:05:14;2.67;;;0.90;;
20334;SDS011;10325;51.468;5.804;2022-09-09T12:07:56;2.30;;;0.60;;
20334;SDS011;10325;51.468;5.804;2022-09-09T12:10:34;1.70;;;1.00;;
20334;SDS011;10325;51.468;5.804;2022-09-09T12:13:19;1.47;;;0.77;;
20334;SDS011;10325;51.468;5.804;2022-09-09T12:15:56;2.97;;;1.10;;
20334;SDS011;10325;51.468;5.804;2022-09-09T12:18:35;2.53;;;1.00;;
20334;SDS011;10325;51.468;5.804;2022-09-09T12:24:10;2.20;;;0.90;;
20334;SDS011;10325;51.468;5.804;2022-09-09T12:32:10;2.23;;;0.90;;
20334;SDS011;10325;51.468;5.804;2022-09-09T12:34:59;2.23;;;0.90;;
20334;SDS011;10325;51.468;5.804;2022-09-09T12:37:42;2.13;;;0.90;;
20334;SDS011;10325;51.468;5.804;2022-09-09T12:40:26;2.20;;;0.90;;
20334;SDS011;10325;51.468;5.804;2022-09-09T12:42:56;5.50;;;1.30;;
20334;SDS011;10325;51.468;5.804;2022-09-09T12:45:30;1.53;;;0.97;;
20334;SDS011;10325;51.468;5.804;2022-09-09T12:48:14;2.43;;;1.03;;
20334;SDS011;10325;51.468;5.804;2022-09-09T12:50:54;2.53;;;1.10;;
20334;SDS011;10325;51.468;5.804;2022-09-09T12:53:35;1.67;;;1.00;;
20334;SDS011;10325;51.468;5.804;2022-09-09T12:56:19;1.07;;;0.80;;
20334;SDS011;10325;51.468;5.804;2022-09-09T12:58:56;1.53;;;0.67;;
20334;SDS011;10325;51.468;5.804;2022-09-09T13:01:32;1.30;;;0.77;;
20334;SDS011;10325;51.468;5.804;2022-09-09T13:04:19;2.57;;;1.00;;
20334;SDS011;10325;51.468;5.804;2022-09-09T13:06:52;1.60;;;0.80;;
20334;SDS011;10325;51.468;5.804;2022-09-09T13:09:24;2.97;;;0.97;;
20334;SDS011;10325;51.468;5.804;2022-09-09T13:11:59;3.17;;;1.20;;
20334;SDS011;10325;51.468;5.804;2022-09-09T13:16:58;2.47;;;1.37;;
20334;SDS011;10325;51.468;5.804;2022-09-09T13:19:32;3.60;;;1.27;;
20334;SDS011;10325;51.468;5.804;2022-09-09T13:22:13;2.50;;;1.07;;
20334;SDS011;10325;51.468;5.804;2022-09-09T13:24:45;2.23;;;1.10;;
20334;SDS011;10325;51.468;5.804;2022-09-09T13:28:02;3.43;;;0.90;;
20334;SDS011;10325;51.468;5.804;2022-09-09T13:30:22;5.20;;;0.80;;
20334;SDS011;10325;51.468;5.804;2022-09-09T13:33:18;2.67;;;0.80;;
20334;SDS011;10325;51.468;5.804;2022-09-09T13:35:54;2.10;;;1.00;;
20334;SDS011;10325;51.468;5.804;2022-09-09T13:38:26;6.53;;;1.80;;
20334;SDS011;10325;51.468;5.804;2022-09-09T13:41:08;5.57;;;1.70;;
20334;SDS011;10325;51.468;5.804;2022-09-09T13:43:44;6.03;;;1.30;;
20334;SDS011;10325;51.468;5.804;2022-09-09T13:48:54;3.50;;;1.43;;
20334;SDS011;10325;51.468;5.804;2022-09-09T13:51:34;6.50;;;1.60;;
20334;SDS011;10325;51.468;5.804;2022-09-09T13:54:10;5.17;;;1.40;;
20334;SDS011;10325;51.468;5.804;2022-09-09T13:56:39;3.10;;;1.20;;
20334;SDS011;10325;51.468;5.804;2022-09-09T13:59:12;4.00;;;1.10;;
20334;SDS011;10325;51.468;5.804;2022-09-09T14:01:44;2.60;;;1.20;;
20334;SDS011;10325;51.468;5.804;2022-09-09T14:04:14;4.17;;;1.37;;
20334;SDS011;10325;51.468;5.804;2022-09-09T14:06:43;2.40;;;1.13;;
20334;SDS011;10325;51.468;5.804;2022-09-09T14:09:18;2.03;;;0.97;;
20334;SDS011;10325;51.468;5.804;2022-09-09T14:11:49;2.97;;;1.00;;
20334;SDS011;10325;51.468;5.804;2022-09-09T14:14:18;2.70;;;1.37;;
20334;SDS011;10325;51.468;5.804;2022-09-09T14:16:49;3.67;;;1.10;;
20334;SDS011;10325;51.468;5.804;2022-09-09T14:19:19;1.67;;;1.10;;
20334;SDS011;10325;51.468;5.804;2022-09-09T14:21:49;2.73;;;1.10;;
20334;SDS011;10325;51.468;5.804;2022-09-09T14:24:19;4.50;;;1.07;;
20334;SDS011;10325;51.468;5.804;2022-09-09T14:26:50;2.13;;;1.13;;
20334;SDS011;10325;51.468;5.804;2022-09-09T14:29:25;2.53;;;1.20;;
20334;SDS011;10325;51.468;5.804;2022-09-09T14:31:55;3.40;;;1.20;;
20334;SDS011;10325;51.468;5.804;2022-09-09T14:34:27;2.40;;;0.97;;
20334;SDS011;10325;51.468;5.804;2022-09-09T14:37:05;2.13;;;1.00;;
20334;SDS011;10325;51.468;5.804;2022-09-09T14:39:36;2.87;;;1.00;;
20334;SDS011;10325;51.468;5.804;2022-09-09T14:42:06;3.17;;;1.20;;
20334;SDS011;10325;51.468;5.804;2022-09-09T14:44:39;5.67;;;1.10;;
20334;SDS011;10325;51.468;5.804;2022-09-09T14:47:11;2.40;;;1.10;;
20334;SDS011;10325;51.468;5.804;2022-09-09T14:49:42;1.67;;;1.17;;
20334;SDS011;10325;51.468;5.804;2022-09-09T14:52:14;3.93;;;1.27;;
20334;SDS011;10325;51.468;5.804;2022-09-09T14:54:45;2.60;;;1.03;;
20334;SDS011;10325;51.468;5.804;2022-09-09T14:57:16;2.53;;;1.13;;
20334;SDS011;10325;51.468;5.804;2022-09-09T14:59:46;1.70;;;1.00;;
20334;SDS011;10325;51.468;5.804;2022-09-09T15:02:17;2.77;;;1.10;;
20334;SDS011;10325;51.468;5.804;2022-09-09T15:04:47;3.85;;;1.30;;
20334;SDS011;10325;51.468;5.804;2022-09-09T15:07:17;3.67;;;1.40;;
20334;SDS011;10325;51.468;5.804;2022-09-09T15:09:59;3.60;;;1.13;;
20334;SDS011;10325;51.468;5.804;2022-09-09T15:12:35;2.47;;;1.10;;
20334;SDS011;10325;51.468;5.804;2022-09-09T15:15:11;2.30;;;1.10;;
20334;SDS011;10325;51.468;5.804;2022-09-09T15:17:42;3.00;;;1.30;;
20334;SDS011;10325;51.468;5.804;2022-09-09T15:20:23;2.57;;;1.27;;
20334;SDS011;10325;51.468;5.804;2022-09-09T15:22:53;2.70;;;1.20;;
20334;SDS011;10325;51.468;5.804;2022-09-09T15:25:28;4.77;;;1.33;;
20334;SDS011;10325;51.468;5.804;2022-09-09T15:27:55;2.73;;;1.17;;
20334;SDS011;10325;51.468;5.804;2022-09-09T15:30:28;3.07;;;1.50;;
20334;SDS011;10325;51.468;5.804;2022-09-09T15:33:13;3.10;;;1.37;;
20334;SDS011;10325;51.468;5.804;2022-09-09T15:35:46;4.53;;;1.20;;
20334;SDS011;10325;51.468;5.804;2022-09-09T15:38:21;2.23;;;1.10;;
20334;SDS011;10325;51.468;5.804;2022-09-09T15:40:54;6.63;;;1.23;;
20334;SDS011;10325;51.468;5.804;2022-09-09T15:43:24;3.03;;;0.90;;
20334;SDS011;10325;51.468;5.804;2022-09-09T15:45:59;2.03;;;0.90;;
20334;SDS011;10325;51.468;5.804;2022-09-09T15:48:37;2.23;;;1.03;;
20334;SDS011;10325;51.468;5.804;2022-09-09T15:51:07;4.53;;;1.30;;
20334;SDS011;10325;51.468;5.804;2022-09-09T15:54:00;3.73;;;1.23;;
20334;SDS011;10325;51.468;5.804;2022-09-09T15:56:33;3.07;;;1.20;;
20334;SDS011;10325;51.468;5.804;2022-09-09T15:59:03;2.47;;;1.20;;
20334;SDS011;10325;51.468;5.804;2022-09-09T16:01:35;2.50;;;1.20;;
20334;SDS011;10325;51.468;5.804;2022-09-09T16:04:11;1.73;;;1.00;;
20334;SDS011;10325;51.468;5.804;2022-09-09T16:06:41;2.17;;;1.00;;
20334;SDS011;10325;51.468;5.804;2022-09-09T16:09:10;1.77;;;1.20;;
20334;SDS011;10325;51.468;5.804;2022-09-09T16:11:41;3.50;;;1.20;;
20334;SDS011;10325;51.468;5.804;2022-09-09T16:14:14;2.67;;;1.30;;
20334;SDS011;10325;51.468;5.804;2022-09-09T16:16:48;3.30;;;1.00;;
20334;SDS011;10325;51.468;5.804;2022-09-09T16:19:21;3.53;;;1.10;;
20334;SDS011;10325;51.468;5.804;2022-09-09T16:21:52;2.33;;;1.20;;
20334;SDS011;10325;51.468;5.804;2022-09-09T16:24:22;2.63;;;1.20;;
20334;SDS011;10325;51.468;5.804;2022-09-09T16:26:53;2.70;;;1.13;;
20334;SDS011;10325;51.468;5.804;2022-09-09T16:29:22;2.23;;;1.20;;
20334;SDS011;10325;51.468;5.804;2022-09-09T16:31:53;5.33;;;1.40;;
20334;SDS011;10325;51.468;5.804;2022-09-09T16:34:37;4.03;;;1.60;;
20334;SDS011;10325;51.468;5.804;2022-09-09T16:37:09;3.23;;;1.20;;
20334;SDS011;10325;51.468;5.804;2022-09-09T16:39:39;4.03;;;1.30;;
20334;SDS011;10325;51.468;5.804;2022-09-09T16:42:35;4.03;;;1.30;;
20334;SDS011;10325;51.468;5.804;2022-09-09T16:45:09;2.43;;;1.00;;
20334;SDS011;10325;51.468;5.804;2022-09-09T16:47:41;3.33;;;1.10;;
20334;SDS011;10325;51.468;5.804;2022-09-09T16:50:24;2.07;;;1.17;;
20334;SDS011;10325;51.468;5.804;2022-09-09T16:52:53;2.13;;;1.30;;
20334;SDS011;10325;51.468;5.804;2022-09-09T16:55:31;3.23;;;1.27;;
20334;SDS011;10325;51.468;5.804;2022-09-09T16:58:04;2.30;;;1.10;;
20334;SDS011;10325;51.468;5.804;2022-09-09T17:00:34;3.13;;;1.60;;
20334;SDS011;10325;51.468;5.804;2022-09-09T17:03:05;1.60;;;0.90;;
20334;SDS011;10325;51.468;5.804;2022-09-09T17:05:39;2.47;;;1.20;;
20334;SDS011;10325;51.468;5.804;2022-09-09T17:08:08;2.90;;;0.90;;
20334;SDS011;10325;51.468;5.804;2022-09-09T17:10:40;2.47;;;1.10;;
20334;SDS011;10325;51.468;5.804;2022-09-09T17:13:16;3.50;;;1.50;;
20334;SDS011;10325;51.468;5.804;2022-09-09T17:16:09;5.30;;;1.10;;
20334;SDS011;10325;51.468;5.804;2022-09-09T17:18:42;1.90;;;1.20;;
20334;SDS011;10325;51.468;5.804;2022-09-09T17:21:11;2.40;;;1.00;;
20334;SDS011;10325;51.468;5.804;2022-09-09T17:23:52;3.10;;;1.13;;
20334;SDS011;10325;51.468;5.804;2022-09-09T17:26:24;2.37;;;1.10;;
20334;SDS011;10325;51.468;5.804;2022-09-09T17:29:17;1.87;;;1.10;;
20334;SDS011;10325;51.468;5.804;2022-09-09T17:31:44;2.57;;;1.30;;
20334;SDS011;10325;51.468;5.804;2022-09-09T17:34:14;3.57;;;1.47;;
20334;SDS011;10325;51.468;5.804;2022-09-09T17:36:46;2.20;;;1.30;;
20334;SDS011;10325;51.468;5.804;2022-09-09T17:39:18;2.47;;;1.20;;
20334;SDS011;10325;51.468;5.804;2022-09-09T17:42:02;3.50;;;1.03;;
20334;SDS011;10325;51.468;5.804;2022-09-09T17:44:36;2.10;;;1.10;;